sensor_id;sensor_type;location;lat;lon;timestamp;P1;durP1;ratioP1;P2;durP2;ratioP2
20832;SDS011;56075;51.264;7.150;2022-10-23T00:02:28;9.00;;;2.53;;
20832;SDS011;56075;51.264;7.150;2022-10-23T00:04:59;9.10;;;2.05;;
20832;SDS011;56075;51.264;7.150;2022-10-23T00:07:30;7.55;;;2.33;;
20832;SDS011;56075;51.264;7.150;2022-10-23T00:10:02;9.05;;;2.40;;
20832;SDS011;56075;51.264;7.150;2022-10-23T00:12:33;8.52;;;2.55;;
20832;SDS011;56075;51.264;7.150;2022-10-23T00:15:04;8.93;;;2.17;;
20832;SDS011;56075;51.264;7.150;2022-10-23T00:17:36;8.68;;;3.17;;
20832;SDS011;56075;51.264;7.150;2022-10-23T00:20:08;7.60;;;2.72;;
20832;SDS011;56075;51.264;7.150;2022-10-23T00:22:39;8.82;;;2.72;;
20832;SDS011;56075;51.264;7.150;2022-10-23T00:25:11;6.10;;;2.22;;
20832;SDS011;56075;51.264;7.150;2022-10-23T00:27:42;7.85;;;2.60;;
20832;SDS011;56075;51.264;7.150;2022-10-23T00:30:13;5.85;;;2.40;;
20832;SDS011;56075;51.264;7.150;2022-10-23T00:32:44;8.10;;;2.40;;
20832;SDS011;56075;51.264;7.150;2022-10-23T00:35:16;9.38;;;2.38;;
20832;SDS011;56075;51.264;7.150;2022-10-23T00:37:47;9.35;;;2.97;;
20832;SDS011;56075;51.264;7.150;2022-10-23T00:40:18;12.13;;;2.95;;
20832;SDS011;56075;51.264;7.150;2022-10-23T00:42:49;6.22;;;2.60;;
20832;SDS011;56075;51.264;7.150;2022-10-23T00:45:22;9.77;;;2.40;;
20832;SDS011;56075;51.264;7.150;2022-10-23T00:47:56;10.70;;;2.33;;
20832;SDS011;56075;51.264;7.150;2022-10-23T00:50:28;8.02;;;2.60;;
20832;SDS011;56075;51.264;7.150;2022-10-23T00:53:02;5.25;;;2.15;;
20832;SDS011;56075;51.264;7.150;2022-10-23T00:55:34;7.68;;;2.28;;
20832;SDS011;56075;51.264;7.150;2022-10-23T00:58:07;7.32;;;2.30;;
20832;SDS011;56075;51.264;7.150;2022-10-23T01:00:40;4.68;;;2.03;;
20832;SDS011;56075;51.264;7.150;2022-10-23T01:03:17;6.75;;;2.20;;
20832;SDS011;56075;51.264;7.150;2022-10-23T01:05:53;8.63;;;2.90;;
20832;SDS011;56075;51.264;7.150;2022-10-23T01:08:34;4.95;;;2.10;;
20832;SDS011;56075;51.264;7.150;2022-10-23T01:11:21;8.95;;;2.20;;
20832;SDS011;56075;51.264;7.150;2022-10-23T01:14:05;8.45;;;2.42;;
20832;SDS011;56075;51.264;7.150;2022-10-23T01:17:05;6.63;;;2.10;;
20832;SDS011;56075;51.264;7.150;2022-10-23T01:22:32;4.45;;;2.10;;
20832;SDS011;56075;51.264;7.150;2022-10-23T01:28:32;5.43;;;2.13;;
20832;SDS011;56075;51.264;7.150;2022-10-23T01:31:10;7.88;;;2.55;;
20832;SDS011;56075;51.264;7.150;2022-10-23T01:33:46;10.98;;;4.38;;
20832;SDS011;56075;51.264;7.150;2022-10-23T01:36:29;4.82;;;2.40;;
20832;SDS011;56075;51.264;7.150;2022-10-23T01:39:05;4.90;;;2.17;;
20832;SDS011;56075;51.264;7.150;2022-10-23T01:44:38;7.30;;;1.83;;
20832;SDS011;56075;51.264;7.150;2022-10-23T01:47:38;14.52;;;2.28;;
20832;SDS011;56075;51.264;7.150;2022-10-23T01:50:13;7.75;;;2.10;;
20832;SDS011;56075;51.264;7.150;2022-10-23T01:52:50;8.35;;;2.00;;
20832;SDS011;56075;51.264;7.150;2022-10-23T01:55:21;11.13;;;2.35;;
20832;SDS011;56075;51.264;7.150;2022-10-23T01:57:54;8.82;;;2.63;;
20832;SDS011;56075;51.264;7.150;2022-10-23T02:00:30;10.88;;;2.83;;
20832;SDS011;56075;51.264;7.150;2022-10-23T02:03:02;5.20;;;2.60;;
20832;SDS011;56075;51.264;7.150;2022-10-23T02:05:38;9.68;;;2.58;;
20832;SDS011;56075;51.264;7.150;2022-10-23T02:08:09;8.75;;;2.40;;
20832;SDS011;56075;51.264;7.150;2022-10-23T02:10:43;6.30;;;2.00;;
20832;SDS011;56075;51.264;7.150;2022-10-23T02:19:32;10.55;;;2.85;;
20832;SDS011;56075;51.264;7.150;2022-10-23T02:22:24;5.78;;;2.20;;
20832;SDS011;56075;51.264;7.150;2022-10-23T02:25:10;7.53;;;1.92;;
20832;SDS011;56075;51.264;7.150;2022-10-23T02:27:51;6.85;;;2.38;;
20832;SDS011;56075;51.264;7.150;2022-10-23T02:30:30;7.97;;;2.22;;
20832;SDS011;56075;51.264;7.150;2022-10-23T02:33:12;7.35;;;2.10;;
20832;SDS011;56075;51.264;7.150;2022-10-23T02:35:45;6.90;;;2.22;;
20832;SDS011;56075;51.264;7.150;2022-10-23T02:38:33;4.70;;;2.20;;
20832;SDS011;56075;51.264;7.150;2022-10-23T02:41:11;5.80;;;2.55;;
20832;SDS011;56075;51.264;7.150;2022-10-23T02:43:56;8.95;;;2.70;;
20832;SDS011;56075;51.264;7.150;2022-10-23T02:46:51;6.78;;;2.25;;
20832;SDS011;56075;51.264;7.150;2022-10-23T02:55:18;6.93;;;1.85;;
20832;SDS011;56075;51.264;7.150;2022-10-23T02:58:06;13.50;;;2.17;;
20832;SDS011;56075;51.264;7.150;2022-10-23T03:00:51;4.93;;;2.10;;
20832;SDS011;56075;51.264;7.150;2022-10-23T03:03:31;8.48;;;3.05;;
20832;SDS011;56075;51.264;7.150;2022-10-23T03:06:04;10.05;;;2.70;;
20832;SDS011;56075;51.264;7.150;2022-10-23T03:08:40;9.32;;;2.80;;
20832;SDS011;56075;51.264;7.150;2022-10-23T03:11:18;7.40;;;2.30;;
20832;SDS011;56075;51.264;7.150;2022-10-23T03:13:49;8.23;;;2.30;;
20832;SDS011;56075;51.264;7.150;2022-10-23T03:16:20;8.10;;;2.38;;
20832;SDS011;56075;51.264;7.150;2022-10-23T03:18:57;8.88;;;2.05;;
20832;SDS011;56075;51.264;7.150;2022-10-23T03:21:28;6.25;;;2.40;;
20832;SDS011;56075;51.264;7.150;2022-10-23T03:23:59;9.13;;;2.33;;
20832;SDS011;56075;51.264;7.150;2022-10-23T03:26:39;9.35;;;2.38;;
20832;SDS011;56075;51.264;7.150;2022-10-23T03:29:10;5.25;;;1.83;;
20832;SDS011;56075;51.264;7.150;2022-10-23T03:31:46;10.65;;;2.03;;
20832;SDS011;56075;51.264;7.150;2022-10-23T03:34:19;8.07;;;2.10;;
20832;SDS011;56075;51.264;7.150;2022-10-23T03:36:50;7.50;;;2.20;;
20832;SDS011;56075;51.264;7.150;2022-10-23T03:39:24;11.45;;;2.33;;
20832;SDS011;56075;51.264;7.150;2022-10-23T03:41:55;4.32;;;2.10;;
20832;SDS011;56075;51.264;7.150;2022-10-23T03:44:26;5.03;;;2.08;;
20832;SDS011;56075;51.264;7.150;2022-10-23T03:46:58;5.43;;;2.28;;
20832;SDS011;56075;51.264;7.150;2022-10-23T03:49:30;4.97;;;2.03;;
20832;SDS011;56075;51.264;7.150;2022-10-23T03:52:07;5.32;;;2.05;;
20832;SDS011;56075;51.264;7.150;2022-10-23T03:54:38;5.40;;;1.80;;
20832;SDS011;56075;51.264;7.150;2022-10-23T03:57:09;6.47;;;2.20;;
20832;SDS011;56075;51.264;7.150;2022-10-23T03:59:41;5.25;;;2.15;;
20832;SDS011;56075;51.264;7.150;2022-10-23T04:02:12;6.88;;;2.08;;
20832;SDS011;56075;51.264;7.150;2022-10-23T04:04:43;2.78;;;1.73;;
20832;SDS011;56075;51.264;7.150;2022-10-23T04:07:14;4.63;;;2.00;;
20832;SDS011;56075;51.264;7.150;2022-10-23T04:09:45;5.38;;;1.98;;
20832;SDS011;56075;51.264;7.150;2022-10-23T04:12:19;4.93;;;1.83;;
20832;SDS011;56075;51.264;7.150;2022-10-23T04:14:51;3.13;;;1.50;;
20832;SDS011;56075;51.264;7.150;2022-10-23T04:17:22;5.03;;;1.77;;
20832;SDS011;56075;51.264;7.150;2022-10-23T04:19:54;6.38;;;1.80;;
20832;SDS011;56075;51.264;7.150;2022-10-23T04:22:25;7.20;;;2.25;;
20832;SDS011;56075;51.264;7.150;2022-10-23T04:24:58;4.07;;;1.60;;
20832;SDS011;56075;51.264;7.150;2022-10-23T04:27:29;6.60;;;1.63;;
20832;SDS011;56075;51.264;7.150;2022-10-23T04:30:00;7.55;;;1.83;;
20832;SDS011;56075;51.264;7.150;2022-10-23T04:32:33;6.53;;;1.80;;
20832;SDS011;56075;51.264;7.150;2022-10-23T04:35:04;8.20;;;1.90;;
20832;SDS011;56075;51.264;7.150;2022-10-23T04:37:36;1.70;;;1.20;;
20832;SDS011;56075;51.264;7.150;2022-10-23T04:40:07;4.72;;;1.42;;
20832;SDS011;56075;51.264;7.150;2022-10-23T04:42:41;4.13;;;1.70;;
20832;SDS011;56075;51.264;7.150;2022-10-23T04:45:12;4.03;;;1.50;;
20832;SDS011;56075;51.264;7.150;2022-10-23T04:47:46;4.88;;;1.60;;
20832;SDS011;56075;51.264;7.150;2022-10-23T04:50:17;5.03;;;1.30;;
20832;SDS011;56075;51.264;7.150;2022-10-23T04:53:07;4.43;;;1.70;;
20832;SDS011;56075;51.264;7.150;2022-10-23T04:56:10;4.53;;;1.73;;
20832;SDS011;56075;51.264;7.150;2022-10-23T04:58:52;3.78;;;1.42;;
20832;SDS011;56075;51.264;7.150;2022-10-23T05:01:26;5.28;;;1.50;;
20832;SDS011;56075;51.264;7.150;2022-10-23T05:03:57;3.60;;;1.92;;
20832;SDS011;56075;51.264;7.150;2022-10-23T05:06:28;6.50;;;2.00;;
20832;SDS011;56075;51.264;7.150;2022-10-23T05:09:25;6.47;;;1.85;;
20832;SDS011;56075;51.264;7.150;2022-10-23T05:12:19;4.43;;;1.55;;
20832;SDS011;56075;51.264;7.150;2022-10-23T05:14:51;9.35;;;1.50;;
20832;SDS011;56075;51.264;7.150;2022-10-23T05:17:25;4.53;;;1.55;;
20832;SDS011;56075;51.264;7.150;2022-10-23T05:20:08;4.32;;;1.70;;
20832;SDS011;56075;51.264;7.150;2022-10-23T05:22:44;4.35;;;1.75;;
20832;SDS011;56075;51.264;7.150;2022-10-23T05:25:19;7.05;;;1.58;;
20832;SDS011;56075;51.264;7.150;2022-10-23T05:27:55;3.33;;;1.70;;
20832;SDS011;56075;51.264;7.150;2022-10-23T05:30:26;5.95;;;1.95;;
20832;SDS011;56075;51.264;7.150;2022-10-23T05:32:58;3.05;;;1.63;;
20832;SDS011;56075;51.264;7.150;2022-10-23T05:35:32;3.25;;;1.50;;
20832;SDS011;56075;51.264;7.150;2022-10-23T05:38:03;7.60;;;1.98;;
20832;SDS011;56075;51.264;7.150;2022-10-23T05:40:36;6.20;;;1.80;;
20832;SDS011;56075;51.264;7.150;2022-10-23T05:43:12;4.30;;;1.70;;
20832;SDS011;56075;51.264;7.150;2022-10-23T05:46:12;5.25;;;1.83;;
20832;SDS011;56075;51.264;7.150;2022-10-23T05:48:57;3.97;;;2.05;;
20832;SDS011;56075;51.264;7.150;2022-10-23T05:51:53;5.82;;;1.92;;
20832;SDS011;56075;51.264;7.150;2022-10-23T05:54:28;3.90;;;1.65;;
20832;SDS011;56075;51.264;7.150;2022-10-23T05:57:08;3.58;;;1.70;;
20832;SDS011;56075;51.264;7.150;2022-10-23T05:59:51;6.88;;;1.50;;
20832;SDS011;56075;51.264;7.150;2022-10-23T06:02:23;4.65;;;1.70;;
20832;SDS011;56075;51.264;7.150;2022-10-23T06:05:03;6.28;;;1.70;;
20832;SDS011;56075;51.264;7.150;2022-10-23T06:08:07;7.03;;;2.95;;
20832;SDS011;56075;51.264;7.150;2022-10-23T06:10:38;11.38;;;2.35;;
20832;SDS011;56075;51.264;7.150;2022-10-23T06:13:11;3.92;;;1.92;;
20832;SDS011;56075;51.264;7.150;2022-10-23T06:15:42;4.82;;;1.60;;
20832;SDS011;56075;51.264;7.150;2022-10-23T06:18:21;5.25;;;2.20;;
20832;SDS011;56075;51.264;7.150;2022-10-23T06:21:00;5.82;;;2.35;;
20832;SDS011;56075;51.264;7.150;2022-10-23T06:23:33;5.20;;;1.73;;
20832;SDS011;56075;51.264;7.150;2022-10-23T06:26:07;11.13;;;2.00;;
20832;SDS011;56075;51.264;7.150;2022-10-23T06:28:57;4.13;;;2.25;;
20832;SDS011;56075;51.264;7.150;2022-10-23T06:31:28;7.13;;;5.10;;
20832;SDS011;56075;51.264;7.150;2022-10-23T06:34:01;5.43;;;3.08;;
20832;SDS011;56075;51.264;7.150;2022-10-23T06:36:34;5.53;;;2.40;;
20832;SDS011;56075;51.264;7.150;2022-10-23T06:39:25;7.07;;;3.40;;
20832;SDS011;56075;51.264;7.150;2022-10-23T06:42:17;6.40;;;1.95;;
20832;SDS011;56075;51.264;7.150;2022-10-23T06:45:00;6.13;;;2.00;;
20832;SDS011;56075;51.264;7.150;2022-10-23T06:47:58;5.70;;;1.73;;
20832;SDS011;56075;51.264;7.150;2022-10-23T06:50:29;7.38;;;1.92;;
20832;SDS011;56075;51.264;7.150;2022-10-23T06:53:01;4.35;;;1.50;;
20832;SDS011;56075;51.264;7.150;2022-10-23T06:55:35;5.15;;;1.40;;
20832;SDS011;56075;51.264;7.150;2022-10-23T06:58:08;5.47;;;1.77;;
20832;SDS011;56075;51.264;7.150;2022-10-23T07:00:48;3.38;;;1.48;;
20832;SDS011;56075;51.264;7.150;2022-10-23T07:03:20;2.65;;;1.40;;
20832;SDS011;56075;51.264;7.150;2022-10-23T07:05:52;4.43;;;1.33;;
20832;SDS011;56075;51.264;7.150;2022-10-23T07:08:23;5.70;;;1.60;;
20832;SDS011;56075;51.264;7.150;2022-10-23T07:10:56;2.75;;;1.42;;
20832;SDS011;56075;51.264;7.150;2022-10-23T07:13:32;6.53;;;1.50;;
20832;SDS011;56075;51.264;7.150;2022-10-23T07:16:19;4.00;;;1.55;;
20832;SDS011;56075;51.264;7.150;2022-10-23T07:18:53;5.28;;;1.60;;
20832;SDS011;56075;51.264;7.150;2022-10-23T07:21:33;3.65;;;1.55;;
20832;SDS011;56075;51.264;7.150;2022-10-23T07:24:23;8.35;;;1.77;;
20832;SDS011;56075;51.264;7.150;2022-10-23T07:26:54;2.75;;;1.42;;
20832;SDS011;56075;51.264;7.150;2022-10-23T07:29:28;5.43;;;2.45;;
20832;SDS011;56075;51.264;7.150;2022-10-23T07:31:59;7.43;;;3.28;;
20832;SDS011;56075;51.264;7.150;2022-10-23T07:34:50;5.53;;;2.67;;
20832;SDS011;56075;51.264;7.150;2022-10-23T07:37:28;9.40;;;3.45;;
20832;SDS011;56075;51.264;7.150;2022-10-23T07:40:02;7.35;;;2.80;;
20832;SDS011;56075;51.264;7.150;2022-10-23T07:42:38;7.47;;;3.70;;
20832;SDS011;56075;51.264;7.150;2022-10-23T07:45:11;5.80;;;2.40;;
20832;SDS011;56075;51.264;7.150;2022-10-23T07:47:48;9.88;;;3.08;;
20832;SDS011;56075;51.264;7.150;2022-10-23T07:50:21;24.35;;;10.95;;
20832;SDS011;56075;51.264;7.150;2022-10-23T07:52:53;11.23;;;4.32;;
20832;SDS011;56075;51.264;7.150;2022-10-23T07:55:27;4.78;;;2.00;;
20832;SDS011;56075;51.264;7.150;2022-10-23T07:58:07;6.30;;;1.90;;
20832;SDS011;56075;51.264;7.150;2022-10-23T08:00:55;4.40;;;1.58;;
20832;SDS011;56075;51.264;7.150;2022-10-23T08:03:34;5.03;;;1.35;;
20832;SDS011;56075;51.264;7.150;2022-10-23T08:06:06;3.05;;;1.30;;
20832;SDS011;56075;51.264;7.150;2022-10-23T08:08:38;3.65;;;1.30;;
20832;SDS011;56075;51.264;7.150;2022-10-23T08:11:11;1.80;;;1.13;;
20832;SDS011;56075;51.264;7.150;2022-10-23T08:13:53;5.55;;;1.50;;
20832;SDS011;56075;51.264;7.150;2022-10-23T08:16:28;4.75;;;1.20;;
20832;SDS011;56075;51.264;7.150;2022-10-23T08:19:18;3.40;;;1.70;;
20832;SDS011;56075;51.264;7.150;2022-10-23T08:21:50;9.32;;;1.73;;
20832;SDS011;56075;51.264;7.150;2022-10-23T08:24:25;5.88;;;1.60;;
20832;SDS011;56075;51.264;7.150;2022-10-23T08:26:56;4.50;;;1.42;;
20832;SDS011;56075;51.264;7.150;2022-10-23T08:29:29;7.75;;;1.27;;
20832;SDS011;56075;51.264;7.150;2022-10-23T08:32:00;2.45;;;1.10;;
20832;SDS011;56075;51.264;7.150;2022-10-23T08:34:51;5.22;;;1.13;;
20832;SDS011;56075;51.264;7.150;2022-10-23T08:37:22;5.25;;;1.10;;
20832;SDS011;56075;51.264;7.150;2022-10-23T08:39:53;4.05;;;1.10;;
20832;SDS011;56075;51.264;7.150;2022-10-23T08:45:50;3.35;;;1.10;;
20832;SDS011;56075;51.264;7.150;2022-10-23T08:48:49;4.63;;;1.30;;
20832;SDS011;56075;51.264;7.150;2022-10-23T08:51:45;3.50;;;1.20;;
20832;SDS011;56075;51.264;7.150;2022-10-23T08:56:59;5.88;;;1.30;;
20832;SDS011;56075;51.264;7.150;2022-10-23T08:59:34;2.33;;;1.10;;
20832;SDS011;56075;51.264;7.150;2022-10-23T09:02:12;6.70;;;1.30;;
20832;SDS011;56075;51.264;7.150;2022-10-23T09:05:02;5.13;;;1.20;;
20832;SDS011;56075;51.264;7.150;2022-10-23T09:10:27;4.50;;;1.10;;
20832;SDS011;56075;51.264;7.150;2022-10-23T09:16:15;4.65;;;1.20;;
20832;SDS011;56075;51.264;7.150;2022-10-23T09:18:51;1.67;;;0.85;;
20832;SDS011;56075;51.264;7.150;2022-10-23T09:21:26;7.82;;;0.95;;
20832;SDS011;56075;51.264;7.150;2022-10-23T09:23:59;5.07;;;1.20;;
20832;SDS011;56075;51.264;7.150;2022-10-23T09:26:30;2.70;;;1.25;;
20832;SDS011;56075;51.264;7.150;2022-10-23T09:29:05;4.20;;;1.27;;
20832;SDS011;56075;51.264;7.150;2022-10-23T09:31:56;6.13;;;1.80;;
20832;SDS011;56075;51.264;7.150;2022-10-23T09:34:30;5.07;;;1.17;;
20832;SDS011;56075;51.264;7.150;2022-10-23T09:37:03;4.07;;;0.82;;
20832;SDS011;56075;51.264;7.150;2022-10-23T09:42:55;9.63;;;1.55;;
20832;SDS011;56075;51.264;7.150;2022-10-23T09:45:30;3.70;;;1.25;;
20832;SDS011;56075;51.264;7.150;2022-10-23T09:48:12;2.60;;;1.35;;
20832;SDS011;56075;51.264;7.150;2022-10-23T09:50:52;3.30;;;1.30;;
20832;SDS011;56075;51.264;7.150;2022-10-23T09:53:28;7.57;;;1.35;;
20832;SDS011;56075;51.264;7.150;2022-10-23T09:59:05;5.85;;;1.65;;
20832;SDS011;56075;51.264;7.150;2022-10-23T10:01:56;4.97;;;1.30;;
20832;SDS011;56075;51.264;7.150;2022-10-23T10:04:56;6.40;;;1.50;;
20832;SDS011;56075;51.264;7.150;2022-10-23T10:07:29;2.35;;;1.10;;
20832;SDS011;56075;51.264;7.150;2022-10-23T10:10:00;3.80;;;1.20;;
20832;SDS011;56075;51.264;7.150;2022-10-23T10:12:40;5.40;;;1.20;;
20832;SDS011;56075;51.264;7.150;2022-10-23T10:15:26;3.13;;;1.20;;
20832;SDS011;56075;51.264;7.150;2022-10-23T10:18:20;3.53;;;1.45;;
20832;SDS011;56075;51.264;7.150;2022-10-23T10:26:46;4.18;;;1.27;;
20832;SDS011;56075;51.264;7.150;2022-10-23T10:35:36;7.00;;;1.13;;
20832;SDS011;56075;51.264;7.150;2022-10-23T10:38:34;2.80;;;1.10;;
20832;SDS011;56075;51.264;7.150;2022-10-23T10:49:41;3.35;;;1.02;;
20832;SDS011;56075;51.264;7.150;2022-10-23T10:52:30;2.53;;;0.90;;
20832;SDS011;56075;51.264;7.150;2022-10-23T10:55:13;3.33;;;1.15;;
20832;SDS011;56075;51.264;7.150;2022-10-23T10:57:52;1.27;;;0.85;;
20832;SDS011;56075;51.264;7.150;2022-10-23T11:00:29;4.60;;;1.00;;
20832;SDS011;56075;51.264;7.150;2022-10-23T11:06:11;2.53;;;0.90;;
20832;SDS011;56075;51.264;7.150;2022-10-23T11:08:46;3.45;;;1.15;;
20832;SDS011;56075;51.264;7.150;2022-10-23T11:11:23;6.47;;;1.20;;
20832;SDS011;56075;51.264;7.150;2022-10-23T11:14:06;2.90;;;0.98;;
20832;SDS011;56075;51.264;7.150;2022-10-23T11:16:57;6.60;;;1.00;;
20832;SDS011;56075;51.264;7.150;2022-10-23T11:19:39;3.67;;;1.00;;
20832;SDS011;56075;51.264;7.150;2022-10-23T11:39:16;2.42;;;1.20;;
20832;SDS011;56075;51.264;7.150;2022-10-23T11:41:58;6.28;;;1.17;;
20832;SDS011;56075;51.264;7.150;2022-10-23T11:47:36;4.95;;;1.20;;
20832;SDS011;56075;51.264;7.150;2022-10-23T11:52:51;4.15;;;1.05;;
20832;SDS011;56075;51.264;7.150;2022-10-23T11:55:28;2.90;;;1.10;;
20832;SDS011;56075;51.264;7.150;2022-10-23T11:58:14;7.00;;;1.45;;
20832;SDS011;56075;51.264;7.150;2022-10-23T12:01:05;5.93;;;1.20;;
20832;SDS011;56075;51.264;7.150;2022-10-23T12:03:53;10.73;;;1.50;;
20832;SDS011;56075;51.264;7.150;2022-10-23T12:06:37;5.15;;;1.00;;
20832;SDS011;56075;51.264;7.150;2022-10-23T12:09:45;6.65;;;1.17;;
20832;SDS011;56075;51.264;7.150;2022-10-23T12:12:14;3.53;;;1.25;;
20832;SDS011;56075;51.264;7.150;2022-10-23T12:14:47;5.55;;;1.38;;
20832;SDS011;56075;51.264;7.150;2022-10-23T12:20:07;5.72;;;1.30;;
20832;SDS011;56075;51.264;7.150;2022-10-23T12:25:49;4.88;;;1.20;;
20832;SDS011;56075;51.264;7.150;2022-10-23T12:31:06;1.70;;;1.08;;
20832;SDS011;56075;51.264;7.150;2022-10-23T12:37:01;3.47;;;1.30;;
20832;SDS011;56075;51.264;7.150;2022-10-23T12:39:50;4.97;;;1.30;;
20832;SDS011;56075;51.264;7.150;2022-10-23T12:42:26;9.50;;;1.40;;
20832;SDS011;56075;51.264;7.150;2022-10-23T12:45:07;4.82;;;1.23;;
20832;SDS011;56075;51.264;7.150;2022-10-23T12:47:55;4.05;;;1.40;;
20832;SDS011;56075;51.264;7.150;2022-10-23T12:50:28;4.85;;;1.27;;
20832;SDS011;56075;51.264;7.150;2022-10-23T12:53:02;12.45;;;1.27;;
20832;SDS011;56075;51.264;7.150;2022-10-23T12:55:57;3.28;;;1.15;;
20832;SDS011;56075;51.264;7.150;2022-10-23T12:58:33;6.53;;;1.38;;
20832;SDS011;56075;51.264;7.150;2022-10-23T13:01:20;9.20;;;1.50;;
20832;SDS011;56075;51.264;7.150;2022-10-23T13:04:10;6.47;;;1.60;;
20832;SDS011;56075;51.264;7.150;2022-10-23T13:06:46;8.52;;;1.20;;
20832;SDS011;56075;51.264;7.150;2022-10-23T13:09:22;7.70;;;1.95;;
20832;SDS011;56075;51.264;7.150;2022-10-23T13:12:15;5.38;;;1.40;;
20832;SDS011;56075;51.264;7.150;2022-10-23T13:17:37;4.45;;;1.17;;
20832;SDS011;56075;51.264;7.150;2022-10-23T13:20:18;7.78;;;1.25;;
20832;SDS011;56075;51.264;7.150;2022-10-23T13:22:55;5.85;;;1.77;;
20832;SDS011;56075;51.264;7.150;2022-10-23T13:25:30;5.72;;;1.67;;
20832;SDS011;56075;51.264;7.150;2022-10-23T13:30:39;8.50;;;1.55;;
20832;SDS011;56075;51.264;7.150;2022-10-23T13:33:13;7.18;;;1.50;;
20832;SDS011;56075;51.264;7.150;2022-10-23T13:35:57;6.32;;;2.28;;
20832;SDS011;56075;51.264;7.150;2022-10-23T13:38:44;7.45;;;2.13;;
20832;SDS011;56075;51.264;7.150;2022-10-23T13:41:17;8.13;;;1.88;;
20832;SDS011;56075;51.264;7.150;2022-10-23T13:43:50;5.78;;;1.67;;
20832;SDS011;56075;51.264;7.150;2022-10-23T13:46:22;3.90;;;1.35;;
20832;SDS011;56075;51.264;7.150;2022-10-23T13:48:57;3.38;;;1.52;;
20832;SDS011;56075;51.264;7.150;2022-10-23T13:51:28;7.00;;;1.65;;
20832;SDS011;56075;51.264;7.150;2022-10-23T13:54:03;2.63;;;1.25;;
20832;SDS011;56075;51.264;7.150;2022-10-23T13:56:35;3.80;;;1.48;;
20832;SDS011;56075;51.264;7.150;2022-10-23T13:59:07;5.63;;;1.60;;
20832;SDS011;56075;51.264;7.150;2022-10-23T14:01:41;4.38;;;1.77;;
20832;SDS011;56075;51.264;7.150;2022-10-23T14:04:13;7.63;;;1.83;;
20832;SDS011;56075;51.264;7.150;2022-10-23T14:06:46;4.10;;;1.70;;
20832;SDS011;56075;51.264;7.150;2022-10-23T14:09:17;4.07;;;1.50;;
20832;SDS011;56075;51.264;7.150;2022-10-23T14:11:48;6.70;;;1.35;;
20832;SDS011;56075;51.264;7.150;2022-10-23T14:14:19;9.73;;;1.80;;
20832;SDS011;56075;51.264;7.150;2022-10-23T14:16:51;7.90;;;1.65;;
20832;SDS011;56075;51.264;7.150;2022-10-23T14:19:22;5.95;;;1.08;;
20832;SDS011;56075;51.264;7.150;2022-10-23T14:21:53;5.15;;;1.60;;
20832;SDS011;56075;51.264;7.150;2022-10-23T14:24:24;4.22;;;1.38;;
20832;SDS011;56075;51.264;7.150;2022-10-23T14:26:56;6.65;;;1.77;;
20832;SDS011;56075;51.264;7.150;2022-10-23T14:29:27;5.82;;;1.80;;
20832;SDS011;56075;51.264;7.150;2022-10-23T14:31:58;7.22;;;1.50;;
20832;SDS011;56075;51.264;7.150;2022-10-23T14:34:29;7.32;;;1.30;;
20832;SDS011;56075;51.264;7.150;2022-10-23T14:37:00;5.82;;;1.50;;
20832;SDS011;56075;51.264;7.150;2022-10-23T14:39:33;2.90;;;1.67;;
20832;SDS011;56075;51.264;7.150;2022-10-23T14:42:04;7.57;;;1.50;;
20832;SDS011;56075;51.264;7.150;2022-10-23T14:44:35;5.90;;;1.50;;
20832;SDS011;56075;51.264;7.150;2022-10-23T14:47:06;10.75;;;1.80;;
20832;SDS011;56075;51.264;7.150;2022-10-23T14:49:37;6.80;;;1.63;;
20832;SDS011;56075;51.264;7.150;2022-10-23T14:52:09;4.55;;;1.60;;
20832;SDS011;56075;51.264;7.150;2022-10-23T14:54:40;5.20;;;1.40;;
20832;SDS011;56075;51.264;7.150;2022-10-23T14:57:11;5.65;;;1.40;;
20832;SDS011;56075;51.264;7.150;2022-10-23T14:59:46;3.95;;;1.70;;
20832;SDS011;56075;51.264;7.150;2022-10-23T15:02:18;6.47;;;1.77;;
20832;SDS011;56075;51.264;7.150;2022-10-23T15:04:49;7.10;;;1.30;;
20832;SDS011;56075;51.264;7.150;2022-10-23T15:07:20;3.92;;;1.42;;
20832;SDS011;56075;51.264;7.150;2022-10-23T15:09:51;7.15;;;1.60;;
20832;SDS011;56075;51.264;7.150;2022-10-23T15:12:22;8.73;;;2.67;;
20832;SDS011;56075;51.264;7.150;2022-10-23T15:14:54;8.27;;;1.75;;
20832;SDS011;56075;51.264;7.150;2022-10-23T15:17:25;4.47;;;1.77;;
20832;SDS011;56075;51.264;7.150;2022-10-23T15:19:56;5.22;;;1.80;;
20832;SDS011;56075;51.264;7.150;2022-10-23T15:22:27;5.43;;;1.80;;
20832;SDS011;56075;51.264;7.150;2022-10-23T15:24:59;5.60;;;1.60;;
20832;SDS011;56075;51.264;7.150;2022-10-23T15:27:30;10.90;;;2.38;;
20832;SDS011;56075;51.264;7.150;2022-10-23T15:30:01;6.28;;;2.40;;
20832;SDS011;56075;51.264;7.150;2022-10-23T15:32:32;3.80;;;2.03;;
20832;SDS011;56075;51.264;7.150;2022-10-23T15:35:03;11.48;;;2.42;;
20832;SDS011;56075;51.264;7.150;2022-10-23T15:37:35;15.52;;;2.38;;
20832;SDS011;56075;51.264;7.150;2022-10-23T15:40:06;10.70;;;2.40;;
20832;SDS011;56075;51.264;7.150;2022-10-23T15:42:38;7.30;;;2.00;;
20832;SDS011;56075;51.264;7.150;2022-10-23T15:45:09;4.88;;;1.95;;
20832;SDS011;56075;51.264;7.150;2022-10-23T15:47:42;6.65;;;2.15;;
20832;SDS011;56075;51.264;7.150;2022-10-23T15:50:14;7.50;;;2.22;;
20832;SDS011;56075;51.264;7.150;2022-10-23T15:52:45;9.23;;;2.00;;
20832;SDS011;56075;51.264;7.150;2022-10-23T15:55:16;5.38;;;2.33;;
20832;SDS011;56075;51.264;7.150;2022-10-23T15:57:47;4.68;;;2.03;;
20832;SDS011;56075;51.264;7.150;2022-10-23T16:00:18;6.20;;;1.95;;
20832;SDS011;56075;51.264;7.150;2022-10-23T16:02:49;5.15;;;2.17;;
20832;SDS011;56075;51.264;7.150;2022-10-23T16:05:20;9.32;;;2.10;;
20832;SDS011;56075;51.264;7.150;2022-10-23T16:07:51;7.93;;;2.00;;
20832;SDS011;56075;51.264;7.150;2022-10-23T16:10:23;8.45;;;2.20;;
20832;SDS011;56075;51.264;7.150;2022-10-23T16:12:54;7.35;;;1.83;;
20832;SDS011;56075;51.264;7.150;2022-10-23T16:15:25;5.03;;;2.03;;
20832;SDS011;56075;51.264;7.150;2022-10-23T16:17:57;7.20;;;2.35;;
20832;SDS011;56075;51.264;7.150;2022-10-23T16:20:28;7.65;;;2.17;;
20832;SDS011;56075;51.264;7.150;2022-10-23T16:23:00;12.23;;;3.03;;
20832;SDS011;56075;51.264;7.150;2022-10-23T16:25:36;14.20;;;3.20;;
20832;SDS011;56075;51.264;7.150;2022-10-23T16:28:07;9.63;;;3.00;;
20832;SDS011;56075;51.264;7.150;2022-10-23T16:30:39;11.38;;;3.13;;
20832;SDS011;56075;51.264;7.150;2022-10-23T16:33:11;7.20;;;2.75;;
20832;SDS011;56075;51.264;7.150;2022-10-23T16:35:43;6.72;;;2.80;;
20832;SDS011;56075;51.264;7.150;2022-10-23T16:38:20;9.48;;;2.70;;
20832;SDS011;56075;51.264;7.150;2022-10-23T16:40:52;8.65;;;2.90;;
20832;SDS011;56075;51.264;7.150;2022-10-23T16:43:49;5.88;;;2.78;;
20832;SDS011;56075;51.264;7.150;2022-10-23T16:46:43;8.65;;;2.92;;
20832;SDS011;56075;51.264;7.150;2022-10-23T16:49:14;7.82;;;3.13;;
20832;SDS011;56075;51.264;7.150;2022-10-23T16:51:47;8.52;;;3.28;;
20832;SDS011;56075;51.264;7.150;2022-10-23T16:54:18;10.05;;;3.15;;
20832;SDS011;56075;51.264;7.150;2022-10-23T16:56:50;11.63;;;4.35;;
20832;SDS011;56075;51.264;7.150;2022-10-23T16:59:21;9.98;;;3.58;;
20832;SDS011;56075;51.264;7.150;2022-10-23T17:01:52;10.85;;;3.60;;
20832;SDS011;56075;51.264;7.150;2022-10-23T17:04:24;9.35;;;3.70;;
20832;SDS011;56075;51.264;7.150;2022-10-23T17:06:55;10.40;;;3.80;;
20832;SDS011;56075;51.264;7.150;2022-10-23T17:09:26;11.75;;;3.80;;
20832;SDS011;56075;51.264;7.150;2022-10-23T17:12:00;12.68;;;3.70;;
20832;SDS011;56075;51.264;7.150;2022-10-23T17:14:32;7.95;;;3.53;;
20832;SDS011;56075;51.264;7.150;2022-10-23T17:17:03;10.35;;;2.90;;
20832;SDS011;56075;51.264;7.150;2022-10-23T17:19:36;8.13;;;2.80;;
20832;SDS011;56075;51.264;7.150;2022-10-23T17:22:10;7.22;;;2.83;;
20832;SDS011;56075;51.264;7.150;2022-10-23T17:24:43;7.30;;;2.65;;